Time;durP1;ratioP1;P1;durP2;ratioP2;P2;SDS_P1;SDS_P2;PMS_P1;PMS_P2;Temp;Humidity;BMP_temperature;BMP_pressure;BME280_temperature;BME280_humidity;BME280_pressure;Samples;Min_cycle;Max_cycle;Signal;HPM_P1;HPM_P2
2023/04/06 00:01:52;;;;;;;;;33.67;25.67;;;;;12.13;63.12;101311.16;4998040;28;45414;-74
2023/04/06 00:04:17;;;;;;;;;28.67;27.67;;;;;12.08;63.71;101314.53;4996958;28;45761;-73
2023/04/06 00:06:42;;;;;;;;;31.67;27.67;;;;;12.00;63.98;101292.69;4987174;28;45872;-75
2023/04/06 00:09:08;;;;;;;;;31.00;24.00;;;;;12.10;64.89;101309.66;4982523;28;45477;-74
2023/04/06 00:11:33;;;;;;;;;30.00;28.00;;;;;12.09;65.58;101307.97;4971661;28;45830;-75
2023/04/06 00:13:59;;;;;;;;;24.33;23.00;;;;;12.07;65.63;101310.09;4979019;28;45620;-74
2023/04/06 00:16:24;;;;;;;;;32.67;28.33;;;;;12.09;66.19;101307.13;4992234;28;45306;-74
2023/04/06 00:18:50;;;;;;;;;30.33;26.00;;;;;12.10;66.67;101304.16;4988044;28;46827;-75
2023/04/06 00:21:15;;;;;;;;;29.00;26.67;;;;;12.04;66.62;101285.75;4987694;28;45440;-75
2023/04/06 00:23:41;;;;;;;;;25.33;22.67;;;;;12.11;66.97;101291.25;4984728;28;45503;-74
2023/04/06 00:26:07;;;;;;;;;30.00;25.67;;;;;12.14;67.35;101299.97;4990610;28;45916;-74
2023/04/06 00:28:33;;;;;;;;;25.00;24.67;;;;;12.11;67.91;101294.88;4973060;28;45468;-75
2023/04/06 00:30:58;;;;;;;;;28.00;27.00;;;;;12.15;70.33;101296.13;4992014;28;45421;-75
2023/04/06 00:33:24;;;;;;;;;31.67;27.00;;;;;12.20;69.33;101301.03;4974567;28;46144;-74
2023/04/06 00:35:50;;;;;;;;;30.33;25.67;;;;;12.14;69.94;101294.47;4973498;28;45749;-73
2023/04/06 00:38:16;;;;;;;;;30.67;24.33;;;;;12.15;70.36;101281.56;4990354;28;45905;-74
2023/04/06 00:40:44;;;;;;;;;22.67;22.67;;;;;12.21;69.78;101294.47;4990881;28;45532;-74
2023/04/06 00:43:10;;;;;;;;;31.00;26.33;;;;;12.18;70.79;101284.75;4992083;28;45440;-74
2023/04/06 00:45:37;;;;;;;;;33.33;29.00;;;;;12.19;71.43;101280.09;4987761;28;46192;-75
2023/04/06 00:48:03;;;;;;;;;30.67;25.00;;;;;12.12;71.45;101258.06;4983738;28;45833;-74
2023/04/06 00:50:29;;;;;;;;;32.33;25.67;;;;;12.16;71.84;101270.34;4973512;28;45538;-74
2023/04/06 00:52:55;;;;;;;;;25.33;22.33;;;;;12.16;72.09;101267.59;4992258;28;45525;-74
2023/04/06 00:55:20;;;;;;;;;24.00;20.00;;;;;12.20;72.49;101270.81;4993379;28;45947;-75
2023/04/06 00:57:46;;;;;;;;;25.67;23.33;;;;;12.21;72.46;101271.63;5009920;28;46335;-74
2023/04/06 01:00:13;;;;;;;;;27.67;25.00;;;;;12.22;72.77;101262.34;4996231;28;45451;-76
2023/04/06 01:02:39;;;;;;;;;30.67;23.33;;;;;12.22;73.18;101265.09;4992912;28;45526;-72
2023/04/06 01:05:05;;;;;;;;;37.00;27.67;;;;;12.16;73.33;101248.34;4980593;28;45703;-73
2023/04/06 01:07:30;;;;;;;;;27.33;25.67;;;;;12.18;73.76;101257.25;4994749;28;46070;-74
2023/04/06 01:09:56;;;;;;;;;29.67;25.00;;;;;12.16;73.94;101255.75;5011035;28;45809;-76
2023/04/06 01:12:21;;;;;;;;;33.67;25.33;;;;;12.08;74.36;101244.94;5004869;28;45971;-76
2023/04/06 01:14:47;;;;;;;;;30.33;27.00;;;;;12.18;75.17;101267.38;4988922;28;45537;-74
2023/04/06 01:17:13;;;;;;;;;29.33;25.33;;;;;12.19;75.80;101269.09;4991096;28;45819;-76
2023/04/06 01:19:40;;;;;;;;;24.33;24.00;;;;;12.16;76.88;101264.84;4991229;28;45804;-74
2023/04/06 01:22:05;;;;;;;;;34.00;28.67;;;;;12.16;77.37;101258.50;4991093;28;45614;-75
2023/04/06 01:24:31;;;;;;;;;29.33;26.00;;;;;12.12;77.62;101258.06;4991465;28;45822;-75
2023/04/06 01:26:56;;;;;;;;;31.33;29.33;;;;;12.14;78.32;101261.47;4989805;28;47444;-76
2023/04/06 01:29:22;;;;;;;;;29.67;27.67;;;;;12.13;78.94;101265.25;4971156;28;45502;-76
2023/04/06 01:31:47;;;;;;;;;31.67;26.33;;;;;12.10;79.31;101256.59;4991772;28;45372;-76
2023/04/06 01:34:13;;;;;;;;;25.00;20.33;;;;;12.08;80.00;101254.06;4991905;28;45765;-74
2023/04/06 01:36:38;;;;;;;;;29.00;27.00;;;;;12.06;80.27;101242.41;4990240;28;47148;-73
2023/04/06 01:39:03;;;;;;;;;30.33;25.33;;;;;12.09;80.12;101252.97;4991740;28;45366;-73
2023/04/06 01:41:29;;;;;;;;;31.33;29.33;;;;;12.09;80.52;101246.63;4987441;28;46593;-72
2023/04/06 01:43:55;;;;;;;;;27.00;21.00;;;;;12.02;80.87;101230.13;4989954;28;47315;-74
2023/04/06 01:46:20;;;;;;;;;32.33;28.33;;;;;12.03;81.70;101234.56;4973719;28;47173;-74
2023/04/06 01:48:46;;;;;;;;;31.33;24.67;;;;;11.98;81.77;101226.09;4991235;28;45605;-73
2023/04/06 01:51:11;;;;;;;;;30.33;29.00;;;;;11.94;81.85;101219.31;4990866;28;45680;-73
2023/04/06 01:53:37;;;;;;;;;31.67;27.67;;;;;11.82;81.93;101208.88;4989874;28;45523;-72
2023/04/06 01:56:02;;;;;;;;;29.00;25.33;;;;;11.83;83.15;101213.31;4983779;28;47301;-72
2023/04/06 01:58:27;;;;;;;;;30.67;29.33;;;;;11.91;83.53;101239.78;4985342;28;45906;-74
2023/04/06 02:00:54;;;;;;;;;35.33;30.00;;;;;11.90;83.85;101231.72;4991384;28;45433;-74
2023/04/06 02:03:19;;;;;;;;;34.67;27.67;;;;;11.93;83.71;101228.59;4990110;28;45817;-74
2023/04/06 02:05:45;;;;;;;;;33.67;30.00;;;;;11.93;83.48;101228.59;4990534;28;45872;-74
2023/04/06 02:08:10;;;;;;;;;35.67;27.00;;;;;11.92;84.69;101232.41;4984345;28;45495;-74
2023/04/06 02:10:36;;;;;;;;;28.33;23.33;;;;;11.88;85.27;101220.94;4986110;28;45375;-73
2023/04/06 02:13:01;;;;;;;;;30.00;26.67;;;;;11.90;85.33;101216.09;4990527;28;45949;-74
2023/04/06 02:15:27;;;;;;;;;33.67;28.00;;;;;11.86;85.58;101203.00;4990828;28;45772;-74
2023/04/06 02:17:53;;;;;;;;;29.67;26.67;;;;;11.93;85.94;101217.59;4990488;28;45660;-74
2023/04/06 02:20:18;;;;;;;;;29.67;26.67;;;;;11.89;86.16;101214.41;4956278;28;45564;-73
2023/04/06 02:22:44;;;;;;;;;32.33;28.67;;;;;11.92;86.41;101218.66;4988312;28;45423;-74
2023/04/06 02:25:10;;;;;;;;;29.33;25.00;;;;;11.84;86.91;101200.41;4990268;28;45488;-74
2023/04/06 02:27:36;;;;;;;;;28.67;26.00;;;;;11.95;86.74;101201.78;4972776;28;45701;-74
2023/04/06 02:30:04;;;;;;;;;28.00;26.33;;;;;11.97;86.85;101196.91;4971516;28;45558;-74
2023/04/06 02:32:30;;;;;;;;;25.67;24.33;;;;;11.93;87.15;101192.88;4988751;28;45758;-75
2023/04/06 02:34:55;;;;;;;;;29.00;25.33;;;;;11.99;87.32;101201.16;4984342;28;46409;-74
2023/04/06 02:37:21;;;;;;;;;32.00;29.00;;;;;12.00;87.38;101193.75;4972437;28;45796;-75
2023/04/06 02:39:47;;;;;;;;;32.67;27.33;;;;;11.96;87.39;101196.06;4990675;28;45712;-76
2023/04/06 02:42:14;;;;;;;;;34.00;27.33;;;;;11.99;87.06;101186.53;4990002;28;45922;-73
2023/04/06 02:44:40;;;;;;;;;32.00;26.33;;;;;11.86;87.63;101170.00;4990568;28;46652;-74
2023/04/06 02:47:05;;;;;;;;;28.33;27.00;;;;;11.94;87.33;101189.06;4989831;28;45832;-73
2023/04/06 02:49:31;;;;;;;;;30.00;27.33;;;;;11.98;87.69;101193.13;4990835;28;46053;-74
2023/04/06 02:51:56;;;;;;;;;32.33;27.67;;;;;11.90;87.74;101182.25;4958606;28;46700;-74
2023/04/06 02:54:21;;;;;;;;;25.67;25.33;;;;;11.98;88.04;101195.88;4990220;28;45864;-74
2023/04/06 02:56:47;;;;;;;;;30.00;25.67;;;;;11.94;88.18;101194.56;4991813;28;45672;-74
2023/04/06 02:59:12;;;;;;;;;27.67;24.00;;;;;11.98;88.57;101201.34;4990541;28;45830;-74
2023/04/06 03:01:38;;;;;;;;;33.67;28.67;;;;;11.93;88.57;101190.13;4986249;28;45741;-75
2023/04/06 03:04:03;;;;;;;;;34.67;30.00;;;;;11.94;88.82;101202.81;4972397;28;46024;-76
2023/04/06 03:06:28;;;;;;;;;33.00;30.33;;;;;11.88;88.40;101192.63;4990704;28;45745;-75
2023/04/06 03:08:54;;;;;;;;;32.00;28.00;;;;;11.90;88.16;101207.88;4994070;28;45396;-75
2023/04/06 03:11:22;;;;;;;;;33.33;26.33;;;;;11.90;88.60;101218.00;4975559;28;45988;-74
2023/04/06 03:13:48;;;;;;;;;31.00;25.00;;;;;11.88;88.20;101209.94;4991073;28;45537;-75
2023/04/06 03:16:14;;;;;;;;;25.00;23.00;;;;;11.89;88.31;101199.81;4993330;28;45692;-76
2023/04/06 03:18:39;;;;;;;;;30.00;25.33;;;;;11.74;87.80;101169.75;4995139;28;45749;-76
2023/04/06 03:21:05;;;;;;;;;39.00;29.33;;;;;11.83;87.70;101183.09;4994030;28;45709;-74
2023/04/06 03:23:30;;;;;;;;;31.67;27.67;;;;;11.73;88.04;101179.88;4995801;28;46771;-74
2023/04/06 03:25:55;;;;;;;;;23.67;23.67;;;;;11.87;87.83;101207.41;4991467;28;46071;-75
2023/04/06 03:28:21;;;;;;;;;26.67;25.33;;;;;11.87;87.83;101200.03;4993302;28;45449;-74
2023/04/06 03:30:46;;;;;;;;;29.00;25.00;;;;;11.83;87.63;101183.09;4977120;28;46861;-72
2023/04/06 03:33:12;;;;;;;;;26.00;24.67;;;;;11.91;87.95;101189.47;4989256;28;47366;-75
2023/04/06 03:35:37;;;;;;;;;29.00;25.67;;;;;11.93;87.57;101201.13;4990535;28;46006;-76
2023/04/06 03:38:04;;;;;;;;;31.00;26.67;;;;;11.88;87.85;101192.63;4993354;28;45440;-73
2023/04/06 03:40:32;;;;;;;;;25.00;23.33;;;;;11.84;87.11;101178.44;4993436;28;45786;-75
2023/04/06 03:42:58;;;;;;;;;29.67;27.00;;;;;11.87;87.65;101175.31;4993442;28;45839;-79
2023/04/06 03:45:24;;;;;;;;;32.67;28.67;;;;;11.87;88.07;101172.56;4991631;28;45942;-77
2023/04/06 03:47:49;;;;;;;;;26.33;24.00;;;;;11.97;87.68;101185.91;4997335;28;45856;-76
2023/04/06 03:50:15;;;;;;;;;31.00;27.00;;;;;11.99;87.55;101181.91;5001767;28;45546;-77
2023/04/06 03:52:40;;;;;;;;;25.00;22.00;;;;;11.99;87.37;101183.78;4999064;28;46154;-77
2023/04/06 03:55:07;;;;;;;;;27.50;26.00;;;;;11.98;87.34;101180.22;4999099;28;45444;-77
2023/04/06 03:57:32;;;;;;;;;33.00;27.33;;;;;12.03;87.45;101174.09;4976403;28;45946;-80
2023/04/06 03:59:58;;;;;;;;;30.00;27.00;;;;;12.01;87.05;101166.03;4991071;28;45929;-79
2023/04/06 04:02:23;;;;;;;;;26.00;22.67;;;;;11.91;86.88;101156.47;5007190;28;45805;-78
2023/04/06 04:04:49;;;;;;;;;25.67;25.00;;;;;12.01;88.24;101184.44;4992361;28;45965;-78
2023/04/06 04:07:14;;;;;;;;;34.33;29.67;;;;;11.92;87.70;101163.69;5006132;28;45930;-78
2023/04/06 04:09:40;;;;;;;;;20.00;19.00;;;;;12.06;87.89;101186.56;5002098;28;45879;-77
2023/04/06 04:12:05;;;;;;;;;35.33;27.33;;;;;12.00;87.60;101175.34;4995494;28;45921;-77
2023/04/06 04:14:31;;;;;;;;;26.33;21.67;;;;;12.05;88.43;101185.75;4993187;28;46143;-79
2023/04/06 04:16:56;;;;;;;;;58.25;44.50;;;;;11.96;87.51;101171.34;4994567;28;45529;-79
2023/04/06 04:19:21;;;;;;;;;61.25;45.75;;;;;12.04;87.43;101172.19;5001517;28;45507;-78
2023/04/06 04:21:47;;;;;;;;;30.33;27.00;;;;;11.88;87.28;101144.00;4978133;28;46121;-81
2023/04/06 04:24:13;;;;;;;;;28.67;24.00;;;;;12.09;87.91;101176.00;4994630;28;45861;-82
2023/04/06 04:26:39;;;;;;;;;23.00;23.00;;;;;12.06;87.55;101165.41;4989113;28;45422;-78
2023/04/06 04:29:05;;;;;;;;;33.33;28.33;;;;;12.04;87.42;101161.22;4984832;28;45814;-77
2023/04/06 04:31:31;;;;;;;;;28.33;28.33;;;;;11.97;87.91;101162.00;4983323;28;46137;-78
2023/04/06 04:33:57;;;;;;;;;26.33;25.67;;;;;12.03;87.81;101171.34;4991520;28;45541;-77
2023/04/06 04:36:24;;;;;;;;;31.00;28.33;;;;;11.99;88.14;101168.16;4996937;28;45484;-79
2023/04/06 04:38:50;;;;;;;;;29.67;27.67;;;;;11.89;88.23;101153.94;4989401;28;47055;-78
2023/04/06 04:41:15;;;;;;;;;29.67;25.00;;;;;12.02;88.43;101169.66;4992446;28;45766;-78
2023/04/06 04:43:40;;;;;;;;;32.67;28.33;;;;;12.04;87.79;101173.03;4985378;28;46584;-77
2023/04/06 04:46:06;;;;;;;;;42.00;29.00;;;;;11.95;87.39;101163.28;4994121;28;45719;-78
2023/04/06 04:48:32;;;;;;;;;37.33;28.67;;;;;11.80;87.64;101153.28;4991965;28;45428;-78
2023/04/06 04:50:57;;;;;;;;;36.67;29.33;;;;;12.05;89.32;101183.00;4979890;28;46765;-80
2023/04/06 04:53:23;;;;;;;;;32.00;27.67;;;;;12.04;89.08;101184.03;4997045;28;45549;-81
2023/04/06 04:55:48;;;;;;;;;33.00;28.00;;;;;12.06;90.33;101198.41;5011684;28;45337;-75
2023/04/06 04:58:16;;;;;;;;;29.67;27.33;;;;;11.88;89.01;101165.13;4987980;28;45346;-77
2023/04/06 05:00:46;;;;;;;;;32.00;26.00;;;;;11.94;88.85;101173.41;4983939;28;46222;-76
2023/04/06 05:03:25;;;;;;;;;32.67;29.33;;;;;11.93;89.72;101184.63;4998110;28;45918;-78
2023/04/06 05:05:51;;;;;;;;;30.33;25.33;;;;;11.99;88.97;101197.53;4969101;28;45521;-75
2023/04/06 05:08:16;;;;;;;;;23.67;21.33;;;;;12.00;89.27;101197.31;4990459;28;45925;-77
2023/04/06 05:10:44;;;;;;;;;28.67;26.00;;;;;11.94;87.83;101198.16;4971031;28;47223;-77
2023/04/06 05:13:09;;;;;;;;;27.33;26.00;;;;;11.95;86.95;101208.09;4989276;28;45812;-77
2023/04/06 05:15:37;;;;;;;;;27.00;23.33;;;;;11.92;87.48;101202.16;4992005;28;45780;-78
2023/04/06 05:18:04;;;;;;;;;21.33;19.00;;;;;12.00;86.50;101211.06;4989785;28;45861;-76
2023/04/06 05:20:29;;;;;;;;;29.33;23.67;;;;;12.01;87.25;101211.94;4977386;28;48339;-77
2023/04/06 05:22:55;;;;;;;;;28.67;24.67;;;;;11.98;88.27;101204.09;4995862;28;45834;-76
2023/04/06 05:25:21;;;;;;;;;30.67;25.00;;;;;11.97;87.99;101205.16;4990769;28;45783;-75
2023/04/06 05:27:46;;;;;;;;;28.67;22.00;;;;;11.96;87.88;101204.31;4985268;28;45575;-78
2023/04/06 05:30:12;;;;;;;;;22.67;20.33;;;;;11.76;88.91;101171.22;4992154;28;46844;-77
2023/04/06 05:32:37;;;;;;;;;24.67;22.67;;;;;11.82;90.12;101189.63;4994780;28;45635;-79
2023/04/06 05:35:03;;;;;;;;;23.67;20.67;;;;;11.90;90.63;101198.75;4980707;28;45769;-79
2023/04/06 05:37:28;;;;;;;;;23.67;20.33;;;;;11.96;90.52;101206.19;4976254;28;46437;-78
2023/04/06 05:39:53;;;;;;;;;23.67;22.67;;;;;11.98;90.77;101206.84;5002164;28;46175;-79
2023/04/06 05:42:19;;;;;;;;;20.33;18.00;;;;;11.93;90.53;101198.38;4977835;28;45485;-80
2023/04/06 05:44:45;;;;;;;;;22.00;18.67;;;;;11.94;90.35;101211.91;4979445;28;45520;-80
2023/04/06 05:47:15;;;;;;;;;26.33;21.67;;;;;11.94;92.05;101211.06;5004315;28;45808;-80
2023/04/06 05:49:44;;;;;;;;;20.00;17.67;;;;;11.87;92.37;101193.66;5001427;28;46322;-78
2023/04/06 05:52:10;;;;;;;;;25.67;21.33;;;;;11.91;91.46;101192.22;5006637;28;45666;-79
2023/04/06 05:54:36;;;;;;;;;24.33;20.67;;;;;11.76;91.30;101160.22;4999085;28;45604;-80
2023/04/06 05:57:03;;;;;;;;;24.33;22.67;;;;;11.94;92.71;101197.31;4998142;28;45796;-78
2023/04/06 05:59:30;;;;;;;;;25.67;23.00;;;;;11.95;91.39;101199.03;5000862;28;46198;-78
2023/04/06 06:01:55;;;;;;;;;27.67;22.33;;;;;11.81;92.05;101182.47;5005373;28;45821;-79
2023/04/06 06:04:21;;;;;;;;;26.67;24.00;;;;;11.93;91.75;101198.38;4990626;28;45962;-81
2023/04/06 06:06:46;;;;;;;;;21.67;20.33;;;;;11.95;91.62;101201.78;4992875;28;45848;-79
2023/04/06 06:09:12;;;;;;;;;23.67;23.67;;;;;11.99;92.27;101201.16;4999724;28;45964;-80
2023/04/06 06:11:43;;;;;;;;;22.00;19.00;;;;;11.98;92.56;101195.88;4998602;28;46143;-79
2023/04/06 06:14:08;;;;;;;;;23.33;22.67;;;;;11.93;92.90;101201.13;4990726;28;45808;-80
2023/04/06 06:16:34;;;;;;;;;24.67;23.00;;;;;11.88;93.26;101198.97;4999259;28;45536;-80
2023/04/06 06:18:59;;;;;;;;;23.33;21.00;;;;;11.83;93.92;101194.09;4995145;28;45751;-78
2023/04/06 06:21:25;;;;;;;;;21.67;19.00;;;;;11.71;94.63;101173.75;4990299;28;45381;-78
2023/04/06 06:23:51;;;;;;;;;21.67;21.67;;;;;11.77;94.11;101200.41;4984942;28;45515;-79
2023/04/06 06:26:17;;;;;;;;;20.67;20.67;;;;;11.75;94.32;101186.03;4989596;28;45678;-79
2023/04/06 06:28:42;;;;;;;;;20.33;20.33;;;;;11.81;94.08;101190.69;4991120;28;45901;-81
2023/04/06 06:31:07;;;;;;;;;21.33;18.00;;;;;11.64;93.95;101156.41;5000631;28;45808;-79
2023/04/06 06:33:33;;;;;;;;;20.67;17.00;;;;;11.86;93.33;101197.50;4974573;28;45791;-78
2023/04/06 06:36:01;;;;;;;;;24.67;22.67;;;;;11.85;94.37;101193.88;4991665;28;45908;-79
2023/04/06 06:38:26;;;;;;;;;21.33;20.00;;;;;11.91;93.67;101198.53;4992310;28;46157;-78
2023/04/06 06:40:52;;;;;;;;;24.00;19.00;;;;;11.97;93.43;101194.16;4990121;28;45992;-78
2023/04/06 06:43:18;;;;;;;;;21.67;19.67;;;;;11.99;94.48;101189.28;4994435;28;45465;-78
2023/04/06 06:45:44;;;;;;;;;27.00;22.33;;;;;12.07;95.00;101197.34;4994026;28;45578;-77
2023/04/06 06:48:11;;;;;;;;;27.00;21.33;;;;;12.08;94.97;101184.44;4993854;28;45809;-79
2023/04/06 06:50:37;;;;;;;;;25.33;23.00;;;;;12.09;94.99;101176.00;4990373;28;45764;-77
2023/04/06 06:53:03;;;;;;;;;20.67;16.33;;;;;12.22;94.70;101185.34;4998739;28;46089;-77
2023/04/06 06:55:28;;;;;;;;;21.00;19.33;;;;;12.25;94.73;101193.19;4998208;28;45674;-78
2023/04/06 06:57:54;;;;;;;;;24.00;22.67;;;;;12.29;96.05;101194.44;4993678;28;46713;-77
2023/04/06 07:00:22;;;;;;;;;24.00;20.33;;;;;12.27;95.51;101193.81;4983688;28;45893;-76
2023/04/06 07:02:48;;;;;;;;;24.67;22.00;;;;;12.38;92.91;101195.06;4994618;28;45446;-77
2023/04/06 07:05:15;;;;;;;;;27.33;25.67;;;;;12.39;93.39;101200.38;5003424;28;45884;-77
2023/04/06 07:07:40;;;;;;;;;32.33;27.67;;;;;12.45;94.42;101196.78;4994757;28;46126;-77
2023/04/06 07:10:09;;;;;;;;;25.33;22.33;;;;;12.48;95.77;101193.59;4996298;28;45858;-77
2023/04/06 07:12:35;;;;;;;;;25.67;22.67;;;;;12.47;95.12;101189.19;4992910;28;45919;-76
2023/04/06 07:15:00;;;;;;;;;22.33;22.00;;;;;12.51;93.37;101184.97;4997916;28;45879;-77
2023/04/06 07:17:26;;;;;;;;;20.67;17.33;;;;;12.59;95.51;101203.16;4999006;28;46707;-76
2023/04/06 07:19:52;;;;;;;;;21.67;19.33;;;;;12.64;96.98;101206.09;5009427;28;45503;-77
2023/04/06 07:22:17;;;;;;;;;25.67;22.67;;;;;12.65;99.04;101207.81;4993625;28;45711;-77
2023/04/06 07:24:43;;;;;;;;;26.33;24.00;;;;;12.69;100.00;101200.84;4993152;28;45598;-77
2023/04/06 07:27:08;;;;;;;;;30.00;24.67;;;;;12.74;100.00;101196.56;4994610;28;46352;-76
2023/04/06 07:29:34;;;;;;;;;34.33;26.00;;;;;12.79;100.00;101194.03;4992736;28;45710;-80
2023/04/06 07:31:59;;;;;;;;;29.00;24.33;;;;;12.85;100.00;101194.03;4992728;28;45409;-77
2023/04/06 07:34:25;;;;;;;;;31.00;25.33;;;;;12.98;100.00;101201.44;4975007;28;45807;-76
2023/04/06 07:36:52;;;;;;;;;29.67;27.67;;;;;13.06;100.00;101195.69;4990530;28;46280;-78
2023/04/06 07:39:18;;;;;;;;;29.67;24.33;;;;;13.16;100.00;101187.00;4995741;28;45763;-78
2023/04/06 07:41:43;;;;;;;;;30.67;26.00;;;;;13.44;100.00;101202.41;4988849;28;45925;-76
2023/04/06 07:44:08;;;;;;;;;26.33;23.67;;;;;13.63;100.00;101180.53;4992885;28;45867;-80
2023/04/06 07:46:34;;;;;;;;;34.33;28.33;;;;;14.09;99.87;101187.72;4989307;28;45439;-78
2023/04/06 07:49:00;;;;;;;;;27.00;23.67;;;;;14.14;99.26;101174.09;4996677;28;45554;-79
2023/04/06 07:51:26;;;;;;;;;35.33;31.00;;;;;14.22;99.59;101171.09;4993683;28;45409;-79
2023/04/06 07:53:51;;;;;;;;;35.33;30.67;;;;;14.48;99.47;101188.50;4982891;28;46573;-79
2023/04/06 07:56:17;;;;;;;;;32.00;28.33;;;;;14.52;97.95;101178.72;4992730;28;46427;-76
2023/04/06 07:58:43;;;;;;;;;28.67;23.33;;;;;14.66;98.74;101190.53;4992606;28;45441;-78
2023/04/06 08:01:09;;;;;;;;;22.33;21.67;;;;;14.80;98.49;101191.25;4994924;28;45654;-77
2023/04/06 08:03:35;;;;;;;;;30.00;30.00;;;;;14.83;96.97;101176.97;4993304;28;45434;-78
2023/04/06 08:06:01;;;;;;;;;33.67;27.67;;;;;14.99;96.98;101190.22;4993997;28;45744;-77
2023/04/06 08:08:26;;;;;;;;;26.67;25.33;;;;;15.26;96.83;101181.66;4998378;28;45553;-78
2023/04/06 08:10:52;;;;;;;;;24.67;22.33;;;;;15.54;95.97;101191.34;4992742;28;45552;-78
2023/04/06 08:13:17;;;;;;;;;28.33;23.00;;;;;15.91;96.29;101184.94;4992529;28;45982;-77
2023/04/06 08:15:43;;;;;;;;;24.33;20.67;;;;;16.33;94.15;101182.19;4971232;28;46135;-78
2023/04/06 08:18:09;;;;;;;;;26.00;23.67;;;;;16.61;92.90;101170.44;4998832;28;45783;-78
2023/04/06 08:20:35;;;;;;;;;25.33;23.67;;;;;17.29;92.56;101190.38;5001221;28;45566;-78
2023/04/06 08:23:00;;;;;;;;;23.00;22.33;;;;;17.68;89.98;101187.88;4982389;28;45893;-78
2023/04/06 08:25:26;;;;;;;;;18.67;18.67;;;;;17.82;89.42;101192.03;4991389;28;45769;-79
2023/04/06 08:27:51;;;;;;;;;25.00;19.33;;;;;17.67;88.51;101185.34;4993583;28;45678;-78
2023/04/06 08:30:18;;;;;;;;;26.67;23.33;;;;;17.41;87.54;101182.88;4992281;28;45688;-79
2023/04/06 08:32:44;;;;;;;;;29.33;25.67;;;;;17.18;89.30;101178.19;4993789;28;46388;-78
2023/04/06 08:35:10;;;;;;;;;28.33;23.33;;;;;17.11;89.73;101174.69;5000185;28;45750;-78
2023/04/06 08:37:35;;;;;;;;;24.33;23.33;;;;;17.15;88.05;101189.75;5001382;28;45833;-77
2023/04/06 08:40:00;;;;;;;;;21.67;17.00;;;;;17.30;89.21;101203.13;5004332;28;45468;-79
2023/04/06 08:42:32;;;;;;;;;26.00;22.67;;;;;17.22;88.55;101211.84;4993246;28;45866;-78
2023/04/06 08:44:58;;;;;;;;;28.33;21.67;;;;;17.09;88.39;101213.75;4987510;28;48630;-78
2023/04/06 08:47:23;;;;;;;;;26.67;23.67;;;;;16.79;88.53;101199.97;4993300;28;45591;-77
2023/04/06 08:49:49;;;;;;;;;27.33;19.67;;;;;16.47;88.96;101202.22;5001166;28;45756;-85
2023/04/06 08:52:18;;;;;;;;;29.33;27.67;;;;;16.22;89.33;101222.59;5007463;28;45676;-83
2023/04/06 08:54:43;;;;;;;;;26.67;24.67;;;;;15.96;91.15;101221.88;4999032;28;45902;-83
2023/04/06 08:57:09;;;;;;;;;25.33;21.00;;;;;15.54;91.42;101206.00;5003878;28;45538;-81
2023/04/06 08:59:36;;;;;;;;;32.33;28.00;;;;;15.43;92.23;101205.91;4980527;28;45401;-82
2023/04/06 09:02:07;;;;;;;;;23.33;21.67;;;;;15.18;92.91;101188.31;5007036;28;45872;-76
2023/04/06 09:04:34;;;;;;;;;26.33;23.67;;;;;15.07;93.41;101200.13;4991313;28;45969;-76
2023/04/06 09:07:00;;;;;;;;;28.33;23.33;;;;;15.02;94.33;101211.00;5000041;28;45509;-83
2023/04/06 09:09:26;;;;;;;;;32.33;28.33;;;;;14.93;95.52;101217.91;5003430;28;45452;-83
2023/04/06 09:11:52;;;;;;;;;30.67;24.33;;;;;14.96;97.36;101221.03;5001892;28;45428;-82
2023/04/06 09:14:36;;;;;;;;;27.67;21.00;;;;;14.94;98.54;101225.97;5001311;28;48123;-82
2023/04/06 09:17:01;;;;;;;;;29.00;26.00;;;;;14.82;100.00;101230.53;4999596;28;45472;-81
2023/04/06 09:19:27;;;;;;;;;31.33;25.33;;;;;14.63;100.00;101229.63;5007940;28;46187;-84
2023/04/06 09:22:08;;;;;;;;;23.00;22.67;;;;;14.53;100.00;101230.06;5011520;28;45478;-83
2023/04/06 09:24:48;;;;;;;;;27.00;25.33;;;;;14.54;100.00;101223.50;4981773;28;46996;-83
2023/04/06 09:27:14;;;;;;;;;25.00;21.67;;;;;14.86;100.00;101220.72;4996732;28;45330;-84
2023/04/06 09:29:45;;;;;;;;;36.33;27.67;;;;;15.16;100.00;101217.25;5007884;28;45408;-82
2023/04/06 09:32:11;;;;;;;;;25.00;18.33;;;;;15.22;100.00;101208.03;4996842;28;45841;-78
2023/04/06 09:34:38;;;;;;;;;22.67;21.00;;;;;15.27;100.00;101226.69;4975682;28;47873;-77
2023/04/06 09:37:18;;;;;;;;;18.50;18.50;;;;;15.13;100.00;101217.69;4992729;28;45435;-78
2023/04/06 09:39:45;;;;;;;;;16.00;15.33;;;;;15.20;100.00;101210.19;5009337;28;45443;-83
2023/04/06 09:42:23;;;;;;;;;16.33;15.00;;;;;15.31;100.00;101206.69;5011182;28;45517;-84
2023/04/06 09:44:48;;;;;;;;;14.00;14.00;;;;;15.57;100.00;101209.34;4989961;28;47171;-82
2023/04/06 09:47:16;;;;;;;;;20.33;14.67;;;;;15.60;100.00;101222.72;4999840;28;45767;-82
2023/04/06 09:49:43;;;;;;;;;16.67;16.67;;;;;15.36;100.00;101206.84;4997866;28;45474;-78
2023/04/06 09:52:11;;;;;;;;;17.67;13.33;;;;;15.10;100.00;101207.09;4998806;28;47327;-77
2023/04/06 09:54:37;;;;;;;;;19.67;14.33;;;;;14.74;100.00;101203.19;4977492;28;47139;-79
2023/04/06 09:57:24;;;;;;;;;19.00;12.67;;;;;14.77;100.00;101241.41;4991069;28;45756;-78
2023/04/06 10:00:09;;;;;;;;;21.00;17.67;;;;;14.51;100.00;101243.25;4960925;28;45382;-78
2023/04/06 10:02:43;;;;;;;;;15.67;14.00;;;;;14.20;100.00;101222.84;4981867;28;45544;-84
2023/04/06 10:05:36;;;;;;;;;15.00;14.00;;;;;14.13;100.00;101247.72;4967025;28;45825;-83
2023/04/06 10:08:08;;;;;;;;;22.67;16.00;;;;;13.95;100.00;101245.69;4985458;28;45440;-78
2023/04/06 10:10:34;;;;;;;;;15.00;14.00;;;;;13.75;100.00;101201.66;4980918;28;45773;-78
2023/04/06 10:13:00;;;;;;;;;17.33;14.33;;;;;13.90;100.00;101212.41;4997812;28;45862;-81
2023/04/06 10:15:28;;;;;;;;;17.33;15.00;;;;;14.05;100.00;101184.53;4998647;28;48188;-79
2023/04/06 10:17:54;;;;;;;;;10.67;10.67;;;;;14.28;100.00;101221.75;5006576;28;45900;-78
2023/04/06 10:20:39;;;;;;;;;11.33;10.00;;;;;14.20;100.00;101233.06;4984905;28;45841;-79
2023/04/06 10:23:20;;;;;;;;;12.33;11.00;;;;;14.34;100.00;101236.56;4992829;28;45407;-78
2023/04/06 10:25:57;;;;;;;;;14.00;13.00;;;;;14.38;100.00;101227.63;4978620;28;46437;-77
2023/04/06 10:28:23;;;;;;;;;15.67;14.00;;;;;14.67;100.00;101218.97;4987812;28;45775;-79
2023/04/06 10:30:48;;;;;;;;;13.33;11.33;;;;;14.91;100.00;101228.31;4999677;28;45830;-77
2023/04/06 10:33:20;;;;;;;;;15.67;9.67;;;;;14.81;100.00;101212.28;4991662;28;45433;-77
2023/04/06 10:35:46;;;;;;;;;10.33;9.33;;;;;14.90;100.00;101235.75;4958009;28;47022;-78
2023/04/06 10:38:14;;;;;;;;;16.67;10.67;;;;;14.69;100.00;101214.91;4990466;28;45750;-76
2023/04/06 10:40:42;;;;;;;;;14.00;12.67;;;;;14.71;100.00;101210.00;4991480;28;45471;-79
2023/04/06 10:43:19;;;;;;;;;15.33;10.00;;;;;14.86;100.00;101234.50;4997823;28;45891;-78
2023/04/06 10:45:56;;;;;;;;;12.33;10.00;;;;;14.94;100.00;101239.78;4989533;28;45866;-76
2023/04/06 10:48:21;;;;;;;;;17.00;15.67;;;;;15.20;100.00;101209.38;4988646;28;45484;-78
2023/04/06 10:50:52;;;;;;;;;11.67;10.33;;;;;15.65;100.00;101237.53;4993096;28;45436;-79
2023/04/06 10:53:25;;;;;;;;;8.00;7.67;;;;;15.63;100.00;101225.88;4996282;28;45531;-79
2023/04/06 10:55:52;;;;;;;;;9.33;9.33;;;;;15.60;100.00;101229.13;4991490;28;46104;-77
2023/04/06 10:58:17;;;;;;;;;15.33;10.00;;;;;15.50;100.00;101235.16;4999073;28;45865;-77
2023/04/06 11:00:47;;;;;;;;;10.33;8.33;;;;;15.41;100.00;101236.53;5001917;28;45697;-78
2023/04/06 11:03:13;;;;;;;;;5.67;4.33;;;;;15.20;100.00;101223.19;4991014;28;45825;-79
2023/04/06 11:05:44;;;;;;;;;8.67;8.00;;;;;15.42;100.00;101234.63;4999002;28;46576;-77